Time;durP1;ratioP1;P1;durP2;ratioP2;P2;SDS_P1;SDS_P2;PMS_P1;PMS_P2;Temp;Humidity;BMP_temperature;BMP_pressure;BME280_temperature;BME280_humidity;BME280_pressure;Samples;Min_cycle;Max_cycle;Signal;HPM_P1;HPM_P2
2023/12/16 00:01:04;;;;;;;10.07;9.43;;;9.30;35.20;;;;;;4905378;29;20236;-81
2023/12/16 00:03:30;;;;;;;11.20;10.40;;;9.30;35.00;;;;;;4923002;29;20257;-81
2023/12/16 00:05:56;;;;;;;10.27;9.67;;;9.20;35.40;;;;;;4922025;29;20215;-81
2023/12/16 00:08:22;;;;;;;9.73;9.23;;;9.20;35.50;;;;;;4920707;29;20208;-81
2023/12/16 00:10:47;;;;;;;10.10;9.60;;;9.30;35.50;;;;;;4907141;29;20637;-81
2023/12/16 00:13:13;;;;;;;9.33;8.73;;;9.50;34.50;;;;;;4926980;29;20464;-82
2023/12/16 00:15:38;;;;;;;10.70;10.10;;;9.60;33.80;;;;;;4926450;29;20582;-82
2023/12/16 00:18:04;;;;;;;10.57;9.97;;;9.70;33.10;;;;;;4906143;29;20775;-83
2023/12/16 00:20:29;;;;;;;10.93;10.33;;;9.80;32.30;;;;;;4906759;29;20251;-83
2023/12/16 00:22:55;;;;;;;9.60;9.10;;;9.90;32.30;;;;;;4906018;29;20184;-82
2023/12/16 00:25:20;;;;;;;9.57;9.07;;;10.00;31.50;;;;;;4922373;29;20285;-82
2023/12/16 00:27:46;;;;;;;10.70;10.03;;;10.00;31.30;;;;;;4922166;29;20197;-83
2023/12/16 00:30:12;;;;;;;10.20;9.70;;;10.10;31.10;;;;;;4905857;29;20271;-83
2023/12/16 00:32:39;;;;;;;10.73;10.13;;;10.00;30.80;;;;;;4908598;29;20189;-83
2023/12/16 00:35:47;;;;;;;11.77;11.07;;;9.70;32.70;;;;;;4910842;29;20717;-84
2023/12/16 00:38:19;;;;;;;11.03;10.43;;;9.60;33.50;;;;;;4892764;29;20461;-82
2023/12/16 00:40:45;;;;;;;11.40;10.50;;;9.40;34.60;;;;;;4926665;29;20460;-83
2023/12/16 00:43:10;;;;;;;11.33;10.60;;;9.30;35.40;;;;;;4909378;29;20988;-82
2023/12/16 00:45:36;;;;;;;11.37;10.60;;;9.10;35.70;;;;;;4925165;29;20236;-83
2023/12/16 00:48:02;;;;;;;11.17;10.57;;;9.20;36.10;;;;;;4925134;29;20216;-82
2023/12/16 00:50:27;;;;;;;10.97;10.37;;;9.30;35.80;;;;;;4909233;29;20668;-83
2023/12/16 00:52:53;;;;;;;11.00;10.40;;;9.40;35.10;;;;;;4925149;29;20192;-83
2023/12/16 00:55:18;;;;;;;11.43;10.77;;;9.60;34.60;;;;;;4908475;29;20191;-83
2023/12/16 00:57:44;;;;;;;11.13;10.53;;;9.50;33.70;;;;;;4908808;29;20248;-84
2023/12/16 01:00:10;;;;;;;11.33;10.73;;;9.50;33.70;;;;;;4906751;29;20620;-83
2023/12/16 01:02:36;;;;;;;10.33;9.83;;;9.30;34.70;;;;;;4907830;29;20196;-83
2023/12/16 01:05:01;;;;;;;10.90;10.10;;;9.20;35.80;;;;;;4907517;29;20421;-83
2023/12/16 01:07:28;;;;;;;11.23;10.63;;;9.10;36.10;;;;;;4922513;29;20791;-83
2023/12/16 01:09:54;;;;;;;11.57;10.87;;;9.00;37.30;;;;;;4907478;29;20564;-83
2023/12/16 01:12:19;;;;;;;10.87;10.27;;;9.00;37.90;;;;;;4925078;29;20535;-82
2023/12/16 01:14:45;;;;;;;11.30;10.70;;;9.00;37.70;;;;;;4906636;29;20602;-81
2023/12/16 01:17:11;;;;;;;11.23;10.63;;;8.90;37.90;;;;;;4923084;29;20201;-83
2023/12/16 01:19:36;;;;;;;12.73;12.00;;;8.90;38.10;;;;;;4907322;29;20915;-82
2023/12/16 01:22:03;;;;;;;11.83;11.23;;;8.90;37.60;;;;;;4908120;29;20200;-82
2023/12/16 01:24:32;;;;;;;11.07;10.47;;;8.80;37.20;;;;;;4926719;29;20157;-84
2023/12/16 01:26:57;;;;;;;11.60;10.87;;;8.70;37.50;;;;;;4925568;29;20862;-83
2023/12/16 01:29:23;;;;;;;10.93;10.33;;;8.60;37.90;;;;;;4906634;29;20473;-83
2023/12/16 01:31:48;;;;;;;10.23;9.73;;;8.60;37.70;;;;;;4906192;29;20192;-82
2023/12/16 01:34:14;;;;;;;10.43;9.90;;;8.60;37.70;;;;;;4908876;29;20212;-83
2023/12/16 01:36:39;;;;;;;10.50;9.90;;;8.60;37.90;;;;;;4925740;29;20232;-82
2023/12/16 01:39:05;;;;;;;9.70;9.20;;;8.70;37.40;;;;;;4922914;29;20213;-83
2023/12/16 01:41:30;;;;;;;12.33;11.50;;;8.70;36.70;;;;;;4907424;29;20181;-82
2023/12/16 01:43:56;;;;;;;10.60;10.00;;;8.70;37.20;;;;;;4921335;29;20197;-83
2023/12/16 01:46:22;;;;;;;10.80;10.20;;;8.70;37.00;;;;;;4919063;29;20189;-83
2023/12/16 01:48:48;;;;;;;10.73;10.07;;;8.60;37.50;;;;;;4902754;29;20219;-83
2023/12/16 01:51:15;;;;;;;10.93;10.33;;;8.60;37.20;;;;;;4921009;29;20417;-83
2023/12/16 01:53:42;;;;;;;11.00;10.40;;;8.60;37.40;;;;;;4895983;29;20528;-82
2023/12/16 01:56:08;;;;;;;11.30;10.50;;;8.70;36.60;;;;;;4902203;29;20931;-83
2023/12/16 01:58:35;;;;;;;10.67;10.07;;;8.60;37.20;;;;;;4902187;29;20465;-83
2023/12/16 02:01:01;;;;;;;11.23;10.53;;;8.50;38.30;;;;;;4908121;29;20455;-82
2023/12/16 02:03:28;;;;;;;10.50;9.90;;;8.40;38.40;;;;;;4901785;29;20445;-83
2023/12/16 02:05:55;;;;;;;12.10;11.17;;;8.40;38.30;;;;;;4907740;29;20211;-83
2023/12/16 02:08:21;;;;;;;12.27;11.57;;;8.40;38.40;;;;;;4906548;29;20866;-83
2023/12/16 02:10:46;;;;;;;11.20;10.60;;;8.40;38.10;;;;;;4908000;29;20421;-84
2023/12/16 02:13:12;;;;;;;11.70;11.00;;;8.40;37.70;;;;;;4917039;29;20221;-83
2023/12/16 02:15:38;;;;;;;10.13;9.60;;;8.40;37.10;;;;;;4908113;29;20228;-82
2023/12/16 02:18:04;;;;;;;10.67;10.13;;;8.40;37.10;;;;;;4907350;29;20203;-83
2023/12/16 02:20:29;;;;;;;10.70;10.20;;;8.40;37.10;;;;;;4907869;29;20957;-83
2023/12/16 02:22:55;;;;;;;10.70;10.10;;;8.40;37.10;;;;;;4925392;29;20240;-83
2023/12/16 02:25:21;;;;;;;11.40;10.80;;;8.40;37.10;;;;;;4943503;29;20235;-83
2023/12/16 02:27:46;;;;;;;11.50;10.77;;;8.40;37.30;;;;;;4922981;29;20437;-83
2023/12/16 02:30:12;;;;;;;11.13;10.53;;;8.50;37.00;;;;;;4906531;29;20180;-83
2023/12/16 02:32:38;;;;;;;10.80;10.20;;;8.60;36.70;;;;;;4907459;29;20207;-82
2023/12/16 02:35:04;;;;;;;11.40;10.70;;;8.50;36.50;;;;;;4908236;29;20433;-83
2023/12/16 02:37:30;;;;;;;10.17;9.67;;;8.50;36.80;;;;;;4908357;29;20255;-83
2023/12/16 02:39:55;;;;;;;11.20;10.60;;;8.70;36.40;;;;;;4908323;29;20543;-83
2023/12/16 02:42:21;;;;;;;10.00;9.50;;;8.80;35.40;;;;;;4928883;29;20709;-83
2023/12/16 02:44:47;;;;;;;10.90;10.33;;;8.80;35.60;;;;;;4910878;29;20185;-83
2023/12/16 02:47:12;;;;;;;11.37;10.70;;;8.80;35.30;;;;;;4910488;29;20672;-83
2023/12/16 02:49:38;;;;;;;10.83;10.23;;;8.80;36.20;;;;;;4910188;29;20649;-83
2023/12/16 02:52:04;;;;;;;11.10;10.50;;;8.90;36.10;;;;;;4909587;29;20574;-83
2023/12/16 02:54:30;;;;;;;10.40;9.90;;;8.90;35.70;;;;;;4907028;29;20191;-83
2023/12/16 02:56:56;;;;;;;10.80;10.27;;;8.90;35.70;;;;;;4891280;29;20535;-83
2023/12/16 02:59:22;;;;;;;9.80;9.30;;;9.00;36.40;;;;;;4902527;29;20564;-83
2023/12/16 03:01:47;;;;;;;10.33;9.83;;;9.20;35.30;;;;;;4911383;29;20189;-83
2023/12/16 03:04:13;;;;;;;10.97;10.37;;;9.40;34.30;;;;;;4931179;29;20260;-83
2023/12/16 03:06:42;;;;;;;10.47;9.87;;;9.40;33.70;;;;;;4911978;29;20277;-83
2023/12/16 03:09:09;;;;;;;10.90;10.10;;;9.00;34.80;;;;;;4911259;29;20220;-83
2023/12/16 03:11:34;;;;;;;11.57;10.87;;;8.90;35.40;;;;;;4928633;29;20431;-83
2023/12/16 03:14:00;;;;;;;11.43;10.73;;;8.80;36.00;;;;;;4909559;29;20437;-83
2023/12/16 03:16:25;;;;;;;11.90;11.20;;;8.70;35.90;;;;;;4926527;29;20185;-83
2023/12/16 03:18:51;;;;;;;10.23;9.73;;;8.50;37.20;;;;;;4910854;29;20216;-83
2023/12/16 03:21:16;;;;;;;11.53;10.70;;;8.40;37.60;;;;;;4926438;29;20195;-83
2023/12/16 03:23:42;;;;;;;10.10;9.60;;;8.20;37.90;;;;;;4911924;29;20188;-83
2023/12/16 03:26:07;;;;;;;10.30;9.70;;;8.40;38.10;;;;;;4912655;29;20200;-83
2023/12/16 03:28:33;;;;;;;10.40;9.70;;;8.30;37.60;;;;;;4910274;29;20212;-83
2023/12/16 03:30:58;;;;;;;10.67;10.07;;;8.30;37.70;;;;;;4929326;29;20180;-83
2023/12/16 03:33:24;;;;;;;9.90;9.40;;;8.40;37.60;;;;;;4912102;29;20185;-83
2023/12/16 03:35:49;;;;;;;10.23;9.73;;;8.30;37.10;;;;;;4930073;29;20195;-84
2023/12/16 03:38:15;;;;;;;9.87;9.40;;;8.40;37.60;;;;;;4928805;29;20256;-83
2023/12/16 03:40:41;;;;;;;9.90;9.40;;;8.40;36.20;;;;;;4913949;29;20212;-83
2023/12/16 03:43:06;;;;;;;9.53;9.03;;;8.30;36.50;;;;;;4912177;29;20458;-83
2023/12/16 03:45:32;;;;;;;10.57;10.07;;;8.20;36.50;;;;;;4932703;29;20185;-83
2023/12/16 03:48:00;;;;;;;10.30;9.80;;;8.10;36.90;;;;;;4914218;29;20204;-83
2023/12/16 03:50:26;;;;;;;10.60;10.00;;;8.10;36.80;;;;;;4927806;29;20248;-83
2023/12/16 03:52:51;;;;;;;10.37;9.87;;;8.00;37.20;;;;;;4915759;29;20440;-83
2023/12/16 03:55:17;;;;;;;10.80;10.27;;;8.00;37.00;;;;;;4939328;29;20197;-83
2023/12/16 03:57:43;;;;;;;10.37;9.87;;;8.00;36.80;;;;;;4908969;29;20280;-83
2023/12/16 04:00:09;;;;;;;11.03;10.47;;;8.20;36.60;;;;;;4908197;29;20212;-84
2023/12/16 04:02:34;;;;;;;23.97;22.20;;;8.30;36.30;;;;;;4910893;29;20201;-83
2023/12/16 04:05:00;;;;;;;10.97;10.27;;;8.30;35.30;;;;;;4911488;29;20452;-84
2023/12/16 04:07:25;;;;;;;10.30;9.80;;;8.30;35.60;;;;;;4940786;29;20196;-84
2023/12/16 04:09:51;;;;;;;10.70;10.13;;;8.40;35.50;;;;;;4933970;29;20200;-84
2023/12/16 04:12:16;;;;;;;9.73;9.23;;;8.40;35.60;;;;;;4929574;29;20199;-83
2023/12/16 04:14:42;;;;;;;9.93;9.43;;;8.40;35.50;;;;;;4928483;29;20185;-84
2023/12/16 04:17:08;;;;;;;9.67;9.10;;;8.50;35.50;;;;;;4910833;29;20243;-83
2023/12/16 04:19:33;;;;;;;9.87;9.27;;;8.80;34.50;;;;;;4927647;29;20219;-84
2023/12/16 04:21:59;;;;;;;9.83;9.23;;;9.00;34.10;;;;;;4927367;29;20181;-84
2023/12/16 04:24:24;;;;;;;10.40;9.87;;;9.20;33.20;;;;;;4913696;29;20185;-81
2023/12/16 04:26:50;;;;;;;10.33;9.83;;;9.40;31.90;;;;;;4917161;29;20180;-81
2023/12/16 04:29:15;;;;;;;9.13;8.73;;;9.30;31.40;;;;;;4917829;29;20187;-82
2023/12/16 04:31:41;;;;;;;9.13;8.53;;;9.20;31.80;;;;;;4917459;29;20188;-82
2023/12/16 04:34:07;;;;;;;9.30;8.80;;;9.10;31.70;;;;;;4916091;29;20189;-82
2023/12/16 04:36:33;;;;;;;9.10;8.70;;;9.10;31.70;;;;;;4917417;29;20432;-82
2023/12/16 04:38:59;;;;;;;8.57;8.17;;;9.00;31.60;;;;;;4927737;29;20503;-82
2023/12/16 04:41:25;;;;;;;9.20;8.67;;;8.90;31.60;;;;;;4916545;29;20209;-82
2023/12/16 04:43:53;;;;;;;9.23;8.73;;;8.80;32.20;;;;;;4915798;29;20429;-82
2023/12/16 04:46:20;;;;;;;8.93;8.53;;;8.70;32.90;;;;;;4922642;29;20192;-81
2023/12/16 04:48:46;;;;;;;9.10;8.70;;;8.60;33.40;;;;;;4932158;29;20440;-82
2023/12/16 04:51:12;;;;;;;9.33;8.73;;;8.50;33.70;;;;;;4917254;29;20460;-82
2023/12/16 04:53:37;;;;;;;10.10;9.60;;;8.50;34.10;;;;;;4916880;29;20557;-83
2023/12/16 04:56:03;;;;;;;9.07;8.50;;;8.40;34.50;;;;;;4933297;29;20436;-82
2023/12/16 04:58:29;;;;;;;8.90;8.40;;;8.30;34.10;;;;;;4932745;29;20201;-82
2023/12/16 05:00:55;;;;;;;8.90;8.50;;;8.30;34.50;;;;;;4933801;29;20431;-83
2023/12/16 05:03:20;;;;;;;8.53;8.13;;;8.30;34.40;;;;;;4910229;29;20468;-83
2023/12/16 05:05:46;;;;;;;8.67;8.13;;;8.20;34.80;;;;;;4917441;29;20223;-83
2023/12/16 05:08:12;;;;;;;8.43;7.97;;;8.30;34.80;;;;;;4917322;29;20181;-83
2023/12/16 05:10:37;;;;;;;9.20;8.70;;;8.30;34.80;;;;;;4917361;29;20179;-83
2023/12/16 05:13:03;;;;;;;8.93;8.23;;;8.30;34.60;;;;;;4913366;29;20275;-83
2023/12/16 05:15:29;;;;;;;9.20;8.70;;;8.30;34.50;;;;;;4916286;29;20181;-83
2023/12/16 05:17:54;;;;;;;8.50;8.10;;;8.50;34.20;;;;;;4914478;29;20437;-80
2023/12/16 05:20:20;;;;;;;9.30;8.80;;;8.70;34.20;;;;;;4915671;29;20216;-83
2023/12/16 05:22:45;;;;;;;8.30;7.90;;;9.00;33.20;;;;;;4933009;29;20236;-83
2023/12/16 05:25:11;;;;;;;8.57;8.17;;;9.00;31.60;;;;;;4913646;29;20188;-83
2023/12/16 05:27:36;;;;;;;9.33;8.83;;;9.00;31.60;;;;;;4898897;29;20232;-83
2023/12/16 05:30:03;;;;;;;8.00;7.60;;;8.90;31.50;;;;;;4902774;29;20188;-83
2023/12/16 05:32:28;;;;;;;7.63;7.23;;;8.80;31.40;;;;;;4923515;29;20180;-83
2023/12/16 05:34:55;;;;;;;7.60;7.20;;;8.70;31.90;;;;;;4919643;29;20498;-83
2023/12/16 05:37:20;;;;;;;8.90;7.70;;;8.80;32.70;;;;;;4902127;29;20212;-84
2023/12/16 05:39:46;;;;;;;7.60;7.03;;;8.90;31.60;;;;;;4902885;29;20536;-82
2023/12/16 05:42:13;;;;;;;8.07;7.60;;;8.80;31.60;;;;;;4897154;29;20218;-82
2023/12/16 05:44:38;;;;;;;9.70;9.00;;;8.60;31.50;;;;;;4903550;29;20929;-82
2023/12/16 05:47:05;;;;;;;8.37;7.90;;;8.30;32.80;;;;;;4919202;29;20730;-82
2023/12/16 05:49:31;;;;;;;9.00;8.50;;;8.00;33.60;;;;;;4918268;29;20188;-82
2023/12/16 05:51:57;;;;;;;8.60;8.00;;;7.90;34.40;;;;;;4923068;29;20461;-82
2023/12/16 05:54:25;;;;;;;10.43;9.70;;;7.80;35.10;;;;;;4908171;29;20537;-82
2023/12/16 05:56:50;;;;;;;9.40;8.80;;;7.80;34.90;;;;;;4900907;29;20231;-82
2023/12/16 05:59:17;;;;;;;8.50;8.10;;;7.70;35.10;;;;;;4901705;29;20982;-81
2023/12/16 06:01:44;;;;;;;9.20;8.60;;;7.80;35.70;;;;;;4918239;29;20275;-82
2023/12/16 06:04:09;;;;;;;8.97;8.53;;;7.80;34.80;;;;;;4902065;29;20421;-82
2023/12/16 06:06:35;;;;;;;8.30;7.80;;;7.70;34.50;;;;;;4916798;29;20424;-81
2023/12/16 06:09:00;;;;;;;9.10;8.70;;;7.60;35.20;;;;;;4900023;29;20553;-81
2023/12/16 06:11:26;;;;;;;10.33;9.73;;;7.50;35.90;;;;;;4918060;29;20169;-81
2023/12/16 06:13:51;;;;;;;9.80;9.30;;;7.40;36.30;;;;;;4914574;29;20191;-81
2023/12/16 06:16:17;;;;;;;9.33;8.73;;;7.60;36.70;;;;;;4921842;29;20268;-81
2023/12/16 07:12:57;;;;;;;9.73;9.23;;;9.10;29.60;;;;;;4911751;29;20505;-78
2023/12/16 07:15:55;;;;;;;9.20;8.70;;;8.60;30.20;;;;;;4843625;29;20460;-77
2023/12/16 07:22:22;;;;;;;9.97;9.40;;;8.00;33.10;;;;;;4870635;29;20442;-77
2023/12/16 07:32:33;;;;;;;;;;;;;;;;;;;;;
2023/12/16 07:38:55;;;;;;;9.93;9.33;;;7.80;34.40;;;;;;4822709;29;20466;-78
2023/12/16 07:41:24;;;;;;;9.67;9.27;;;7.90;34.30;;;;;;4828391;29;20561;-75
2023/12/16 07:43:50;;;;;;;10.10;9.57;;;7.80;34.10;;;;;;4913886;29;20429;-80
2023/12/16 07:46:16;;;;;;;9.83;9.23;;;7.80;34.00;;;;;;4924393;29;20496;-80
2023/12/16 07:48:42;;;;;;;10.43;9.93;;;7.70;34.40;;;;;;4915642;29;20209;-76
2023/12/16 07:51:17;;;;;;;9.70;9.20;;;7.90;34.40;;;;;;4915766;29;20404;-77
2023/12/16 07:53:46;;;;;;;9.87;9.40;;;7.90;34.10;;;;;;4939342;29;20413;-77
2023/12/16 07:56:16;;;;;;;9.57;9.10;;;7.90;33.80;;;;;;4941208;29;20421;-77
2023/12/16 07:58:42;;;;;;;9.87;9.27;;;7.90;33.50;;;;;;4940522;29;20740;-76
2023/12/16 08:01:13;;;;;;;8.83;8.40;;;7.80;33.10;;;;;;4938808;29;20436;-78
2023/12/16 08:03:47;;;;;;;8.77;8.37;;;7.70;33.50;;;;;;4926319;29;20232;-77
2023/12/16 08:06:16;;;;;;;9.33;8.83;;;7.70;32.80;;;;;;4906762;29;20507;-79
2023/12/16 08:08:45;;;;;;;8.57;8.17;;;7.70;33.40;;;;;;4904404;29;21012;-79
2023/12/16 08:11:10;;;;;;;8.33;7.93;;;7.80;33.40;;;;;;4906963;29;20428;-79
2023/12/16 08:13:37;;;;;;;8.23;7.83;;;8.00;32.40;;;;;;4925071;29;20931;-79
2023/12/16 08:16:08;;;;;;;8.10;7.70;;;8.10;32.40;;;;;;4928054;29;20210;-78
2023/12/16 08:18:33;;;;;;;8.30;7.80;;;8.30;31.00;;;;;;4905123;29;20441;-78
2023/12/16 08:20:59;;;;;;;9.20;8.57;;;8.40;30.70;;;;;;4921594;29;20499;-79
2023/12/16 08:23:25;;;;;;;10.60;9.90;;;8.30;30.50;;;;;;4914801;29;20191;-77
2023/12/16 08:25:50;;;;;;;9.70;9.20;;;8.40;31.10;;;;;;4925902;29;20446;-79
2023/12/16 08:28:16;;;;;;;9.37;8.77;;;8.60;31.10;;;;;;4914195;29;20216;-78
2023/12/16 08:30:43;;;;;;;9.23;8.73;;;8.80;30.20;;;;;;4905667;29;20651;-78
2023/12/16 08:33:08;;;;;;;8.70;8.30;;;9.00;29.60;;;;;;4908578;29;20192;-79
2023/12/16 08:35:34;;;;;;;8.77;8.27;;;9.20;29.10;;;;;;4922812;29;20497;-78
2023/12/16 08:38:01;;;;;;;8.87;8.37;;;9.30;28.70;;;;;;4927798;29;20212;-78
2023/12/16 08:40:27;;;;;;;8.53;8.03;;;9.50;28.40;;;;;;4901062;29;20271;-77
2023/12/16 08:42:52;;;;;;;7.70;7.20;;;9.60;28.10;;;;;;4904554;29;20448;-78
2023/12/16 08:45:18;;;;;;;8.33;7.93;;;9.70;27.80;;;;;;4903677;29;20421;-77
2023/12/16 08:47:43;;;;;;;8.40;7.90;;;9.60;28.00;;;;;;4913239;29;20233;-77
2023/12/16 08:50:09;;;;;;;8.40;7.93;;;9.70;28.50;;;;;;4921056;29;20199;-78
2023/12/16 08:52:35;;;;;;;8.33;7.93;;;9.70;27.60;;;;;;4922670;29;20200;-77
2023/12/16 08:55:03;;;;;;;7.97;7.57;;;9.80;27.40;;;;;;4910153;29;20424;-78
2023/12/16 08:57:29;;;;;;;8.20;7.70;;;9.90;26.70;;;;;;4929619;29;20492;-78
2023/12/16 08:59:54;;;;;;;9.10;8.60;;;9.90;27.00;;;;;;4914274;29;20472;-77
2023/12/16 09:02:20;;;;;;;9.30;8.80;;;9.90;27.00;;;;;;4905841;29;20189;-76
2023/12/16 09:04:46;;;;;;;9.70;9.20;;;9.90;27.00;;;;;;4926424;29;20195;-78
2023/12/16 09:07:12;;;;;;;8.77;8.37;;;9.90;27.10;;;;;;4922726;29;20840;-79
2023/12/16 09:09:38;;;;;;;8.40;8.00;;;9.90;27.60;;;;;;4913977;29;20214;-77
2023/12/16 09:12:05;;;;;;;9.40;8.90;;;9.90;27.10;;;;;;4911130;29;20997;-78
2023/12/16 09:14:30;;;;;;;9.60;9.10;;;9.70;27.30;;;;;;4919017;29;20424;-77
2023/12/16 09:16:56;;;;;;;9.23;8.73;;;9.60;27.90;;;;;;4905017;29;20439;-78
2023/12/16 09:19:22;;;;;;;8.87;8.47;;;9.50;27.80;;;;;;4922446;29;20208;-77
2023/12/16 09:21:48;;;;;;;8.50;8.00;;;9.50;28.00;;;;;;4922773;29;20180;-78
2023/12/16 09:24:14;;;;;;;8.87;8.37;;;9.30;28.40;;;;;;4922654;29;20504;-78
2023/12/16 09:26:39;;;;;;;8.60;8.17;;;9.40;28.50;;;;;;4903104;29;20492;-77
2023/12/16 09:29:05;;;;;;;8.90;8.40;;;9.40;28.70;;;;;;4919114;29;20220;-78
2023/12/16 09:31:31;;;;;;;8.80;8.30;;;9.40;28.30;;;;;;4921266;29;20656;-77
2023/12/16 09:33:57;;;;;;;9.07;8.57;;;9.40;28.50;;;;;;4919748;29;20428;-78
2023/12/16 09:36:26;;;;;;;8.90;8.40;;;9.40;28.10;;;;;;4919841;29;20512;-78
2023/12/16 09:38:53;;;;;;;10.57;9.90;;;9.40;28.60;;;;;;4918055;29;20200;-77
2023/12/16 09:41:28;;;;;;;9.80;9.20;;;9.50;28.80;;;;;;4922814;29;20435;-78
2023/12/16 09:43:55;;;;;;;9.90;9.30;;;9.50;28.50;;;;;;4898272;29;20467;-79
2023/12/16 09:46:25;;;;;;;9.20;8.70;;;9.60;28.40;;;;;;4902043;29;20451;-78
2023/12/16 09:48:50;;;;;;;8.90;8.20;;;9.80;28.10;;;;;;4915595;29;20449;-78
2023/12/16 09:51:16;;;;;;;9.37;8.87;;;9.90;27.40;;;;;;4923682;29;20417;-78
2023/12/16 09:53:42;;;;;;;9.17;8.67;;;10.00;26.70;;;;;;4918295;29;20592;-78
2023/12/16 09:56:11;;;;;;;9.50;8.90;;;10.00;26.50;;;;;;4918792;29;20185;-79
2023/12/16 09:58:40;;;;;;;10.60;9.80;;;10.00;26.70;;;;;;4923554;29;20480;-78
2023/12/16 10:01:08;;;;;;;8.77;8.37;;;9.80;27.50;;;;;;4927806;29;20480;-78
2023/12/16 10:03:34;;;;;;;8.17;7.70;;;9.80;27.90;;;;;;4924225;29;20983;-78
2023/12/16 10:06:01;;;;;;;10.20;9.57;;;9.90;27.80;;;;;;4915491;29;20405;-77
2023/12/16 10:08:26;;;;;;;9.63;9.13;;;9.90;27.60;;;;;;4921900;29;20440;-77
2023/12/16 10:10:59;;;;;;;9.93;9.43;;;10.00;26.50;;;;;;4903336;29;20837;-77
2023/12/16 10:13:26;;;;;;;9.60;9.03;;;10.10;26.20;;;;;;4908807;29;20196;-77
2023/12/16 10:15:52;;;;;;;9.70;9.00;;;10.20;25.80;;;;;;4901936;29;20417;-78
2023/12/16 10:18:18;;;;;;;10.00;9.40;;;10.20;25.70;;;;;;4921032;29;20510;-77
2023/12/16 10:20:44;;;;;;;10.00;9.40;;;10.30;25.50;;;;;;4930781;29;20551;-77
2023/12/16 10:23:12;;;;;;;10.20;9.50;;;10.30;25.20;;;;;;4919130;29;20460;-79
2023/12/16 10:25:37;;;;;;;10.23;9.53;;;10.40;25.10;;;;;;4903663;29;20204;-78
2023/12/16 10:28:03;;;;;;;9.50;9.00;;;10.40;25.30;;;;;;4918683;29;20982;-78
2023/12/16 10:30:30;;;;;;;10.33;9.73;;;10.40;25.30;;;;;;4917036;29;20235;-78
2023/12/16 10:32:56;;;;;;;9.40;8.77;;;10.40;25.10;;;;;;4917314;29;20652;-78
2023/12/16 10:35:23;;;;;;;10.90;10.10;;;10.40;24.70;;;;;;4901669;29;20486;-80
2023/12/16 10:37:50;;;;;;;10.40;9.83;;;10.30;24.50;;;;;;4900410;29;20487;-77
2023/12/16 10:40:17;;;;;;;9.93;9.13;;;10.10;25.80;;;;;;4918981;29;20467;-78
2023/12/16 10:42:43;;;;;;;9.03;8.53;;;10.10;25.80;;;;;;4898266;29;20440;-79
2023/12/16 10:45:11;;;;;;;9.57;8.97;;;10.20;25.70;;;;;;4920527;29;20928;-78
2023/12/16 10:47:37;;;;;;;8.60;8.10;;;10.20;25.50;;;;;;4940182;29;20424;-78
2023/12/16 10:50:03;;;;;;;7.70;7.23;;;10.20;24.70;;;;;;4925892;29;20836;-77
2023/12/16 10:52:42;;;;;;;9.10;8.30;;;10.00;25.10;;;;;;4918117;29;20425;-77
2023/12/16 10:55:22;;;;;;;8.20;7.77;;;9.80;26.00;;;;;;4902852;29;20890;-77
2023/12/16 10:58:14;;;;;;;8.83;7.77;;;9.60;26.80;;;;;;4916165;29;20443;-77
2023/12/16 11:00:41;;;;;;;10.17;9.47;;;9.70;26.70;;;;;;4914546;29;20460;-77
2023/12/16 11:03:33;;;;;;;8.60;8.00;;;9.90;26.30;;;;;;4903059;29;20431;-77
2023/12/16 11:06:15;;;;;;;9.03;8.40;;;10.00;25.00;;;;;;4898265;29;21054;-77
2023/12/16 11:08:41;;;;;;;9.07;8.57;;;10.10;24.90;;;;;;4903399;29;20440;-77
2023/12/16 11:11:07;;;;;;;9.20;8.50;;;10.10;25.30;;;;;;4920593;29;20416;-77
2023/12/16 11:13:34;;;;;;;7.90;7.40;;;10.20;24.90;;;;;;4901670;29;21546;-77
2023/12/16 11:16:11;;;;;;;8.97;7.80;;;10.30;24.80;;;;;;4907041;29;20425;-78
2023/12/16 11:18:39;;;;;;;9.73;9.10;;;10.30;24.60;;;;;;4922157;29;20459;-78
2023/12/16 11:21:08;;;;;;;9.20;8.60;;;10.40;24.50;;;;;;4924361;29;21130;-78
2023/12/16 11:23:44;;;;;;;10.23;9.43;;;10.40;24.50;;;;;;4924757;29;20420;-77
2023/12/16 11:26:10;;;;;;;8.90;8.30;;;10.50;24.30;;;;;;4924166;29;20404;-78
2023/12/16 11:28:35;;;;;;;9.93;9.10;;;10.40;23.80;;;;;;4904015;29;20467;-77
2023/12/16 11:31:03;;;;;;;9.97;9.20;;;10.40;23.50;;;;;;4921222;29;20287;-78
2023/12/16 11:33:44;;;;;;;9.40;8.80;;;10.40;23.50;;;;;;4940986;29;20230;-77
2023/12/16 11:36:10;;;;;;;8.97;8.23;;;10.40;23.50;;;;;;4915329;29;20509;-78
2023/12/16 11:38:43;;;;;;;9.57;8.70;;;10.40;22.90;;;;;;4903867;29;20449;-77
2023/12/16 11:41:11;;;;;;;9.40;8.70;;;10.50;22.60;;;;;;4884628;29;20189;-78
2023/12/16 11:43:47;;;;;;;8.90;8.40;;;10.40;23.00;;;;;;4901969;29;20778;-78
2023/12/16 11:46:33;;;;;;;8.93;8.33;;;10.40;23.50;;;;;;4902098;29;20496;-78
2023/12/16 11:49:02;;;;;;;9.23;8.33;;;10.40;23.40;;;;;;4901178;29;20806;-78
2023/12/16 11:51:27;;;;;;;10.30;9.50;;;10.40;23.00;;;;;;4901319;29;20402;-77
2023/12/16 11:53:56;;;;;;;9.87;8.90;;;10.40;23.50;;;;;;4915202;29;20413;-79
2023/12/16 11:56:21;;;;;;;9.63;8.93;;;10.40;23.50;;;;;;4913142;29;20173;-78
2023/12/16 11:58:47;;;;;;;9.90;9.00;;;10.40;23.50;;;;;;4918925;29;20447;-77
2023/12/16 12:01:12;;;;;;;10.67;9.70;;;10.50;22.90;;;;;;4921034;29;20233;-79
2023/12/16 12:03:38;;;;;;;11.20;10.50;;;10.30;23.00;;;;;;4925445;29;20177;-77
2023/12/16 12:06:04;;;;;;;10.70;9.80;;;10.30;23.40;;;;;;4924302;29;20260;-78
2023/12/16 12:08:30;;;;;;;9.70;8.87;;;10.30;23.40;;;;;;4903689;29;20201;-78
2023/12/16 12:10:55;;;;;;;10.77;9.97;;;10.40;23.50;;;;;;4919153;29;20674;-78
2023/12/16 12:13:21;;;;;;;9.43;8.83;;;10.40;23.40;;;;;;4902112;29;20611;-77
2023/12/16 12:15:47;;;;;;;10.50;9.47;;;10.30;22.30;;;;;;4902846;29;20284;-78
2023/12/16 12:18:12;;;;;;;10.90;10.10;;;10.30;22.40;;;;;;4918509;29;20443;-78
2023/12/16 12:20:38;;;;;;;10.97;10.17;;;10.30;22.40;;;;;;4918149;29;20215;-77
2023/12/16 12:23:03;;;;;;;11.10;10.20;;;10.40;22.30;;;;;;4912479;29;20183;-77
2023/12/16 12:25:30;;;;;;;11.27;10.17;;;10.40;22.70;;;;;;4909900;29;20209;-77
2023/12/16 12:27:55;;;;;;;11.37;10.40;;;10.40;22.40;;;;;;4912372;29;20201;-76
2023/12/16 12:30:21;;;;;;;13.07;11.90;;;10.40;22.00;;;;;;4894376;29;20461;-77
2023/12/16 12:32:50;;;;;;;10.93;10.13;;;10.40;21.80;;;;;;4909091;29;20180;-77
2023/12/16 12:35:15;;;;;;;11.27;10.57;;;10.40;21.90;;;;;;4913176;29;20691;-76
2023/12/16 12:37:43;;;;;;;10.23;9.43;;;10.40;22.10;;;;;;4916867;29;20436;-79
2023/12/16 12:40:12;;;;;;;10.20;9.50;;;10.30;22.30;;;;;;4912746;29;20204;-77
2023/12/16 12:42:51;;;;;;;10.73;9.93;;;10.30;21.80;;;;;;4895942;29;20424;-77
2023/12/16 12:45:24;;;;;;;11.10;10.33;;;10.30;21.50;;;;;;4911813;29;20515;-77
2023/12/16 12:47:50;;;;;;;9.73;9.10;;;10.00;21.70;;;;;;4906685;29;20473;-77
2023/12/16 12:50:28;;;;;;;9.53;8.80;;;9.70;23.20;;;;;;4895232;29;20449;-79
2023/12/16 12:52:54;;;;;;;10.07;9.43;;;9.80;23.80;;;;;;4914062;29;20847;-77
2023/12/16 12:55:19;;;;;;;11.03;9.97;;;9.90;24.20;;;;;;4894834;29;20435;-78
2023/12/16 12:57:45;;;;;;;9.60;8.63;;;9.90;23.90;;;;;;4906725;29;20197;-77
2023/12/16 13:00:13;;;;;;;8.50;8.00;;;10.00;21.40;;;;;;4911196;29;20291;-77
2023/12/16 13:02:40;;;;;;;9.33;8.40;;;10.10;20.70;;;;;;4912210;29;20416;-76
2023/12/16 13:05:06;;;;;;;9.80;8.80;;;10.10;20.10;;;;;;4916653;29;20413;-77
2023/12/16 13:07:32;;;;;;;9.90;9.20;;;10.20;19.70;;;;;;4897017;29;20421;-77
2023/12/16 13:09:58;;;;;;;10.80;10.00;;;10.20;19.40;;;;;;4909288;29;20425;-78
2023/12/16 13:12:23;;;;;;;9.33;8.83;;;10.20;19.50;;;;;;4931492;29;20424;-77
2023/12/16 13:14:49;;;;;;;10.10;9.30;;;10.20;19.30;;;;;;4920392;29;20219;-81
2023/12/16 13:17:15;;;;;;;9.23;8.30;;;10.20;19.10;;;;;;4931190;29;20190;-80
2023/12/16 13:19:41;;;;;;;9.90;9.13;;;10.30;18.00;;;;;;4917284;29;20212;-80
2023/12/16 13:22:06;;;;;;;9.60;8.67;;;10.30;17.70;;;;;;4929761;29;20263;-78
2023/12/16 13:24:32;;;;;;;9.77;9.10;;;10.30;17.70;;;;;;4910405;29;20517;-78
2023/12/16 13:26:58;;;;;;;9.53;8.87;;;10.30;18.10;;;;;;4892709;29;20176;-77
2023/12/16 13:29:24;;;;;;;9.80;9.10;;;10.40;18.30;;;;;;4912866;29;20225;-77
2023/12/16 13:31:49;;;;;;;10.13;9.20;;;10.40;18.90;;;;;;4928048;29;20665;-77
2023/12/16 13:34:15;;;;;;;11.13;10.33;;;10.40;18.90;;;;;;4909567;29;20433;-77
2023/12/16 13:36:41;;;;;;;10.30;9.40;;;10.50;19.40;;;;;;4928022;29;20180;-78
2023/12/16 13:39:06;;;;;;;11.80;10.73;;;10.50;19.50;;;;;;4918522;23;20235;-54
2023/12/16 13:41:33;;;;;;;11.47;10.60;;;10.60;19.40;;;;;;4900594;29;20628;-54
2023/12/16 13:43:59;;;;;;;10.53;9.83;;;10.50;19.70;;;;;;4904997;29;20188;-54
2023/12/16 13:46:25;;;;;;;11.47;10.57;;;10.60;19.20;;;;;;4897314;29;20475;-55
2023/12/16 13:48:51;;;;;;;9.90;9.20;;;10.60;19.40;;;;;;4900500;29;20858;-54
2023/12/16 13:51:17;;;;;;;11.10;10.17;;;10.60;19.00;;;;;;4902632;29;20464;-55
2023/12/16 13:53:42;;;;;;;10.37;9.53;;;10.60;19.20;;;;;;4895091;29;20185;-54
2023/12/16 13:56:08;;;;;;;11.37;10.33;;;10.70;19.00;;;;;;4901944;29;20806;-55